Time;durP1;ratioP1;P1;durP2;ratioP2;P2;SDS_P1;SDS_P2;PMS_P1;PMS_P2;Temp;Humidity;BMP_temperature;BMP_pressure;BME280_temperature;BME280_humidity;BME280_pressure;Samples;Min_cycle;Max_cycle;Signal;HPM_P1;HPM_P2
2022/08/06 00:01:38;;;;;;;0.50;0.50;;;;;;;12.45;85.52;102514.38;4999522;28;20079;-77
2022/08/06 00:04:07;;;;;;;1.00;0.60;;;;;;;12.43;85.38;102512.66;5000695;28;20478;-77
2022/08/06 00:06:32;;;;;;;1.55;0.50;;;;;;;12.40;85.38;102518.03;5018905;28;20037;-77
2022/08/06 00:09:01;;;;;;;0.63;0.63;;;;;;;12.40;85.72;102520.69;5017845;28;20037;-77
2022/08/06 00:11:26;;;;;;;0.63;0.63;;;;;;;12.39;85.57;102522.50;5020466;28;20451;-77
2022/08/06 00:13:52;;;;;;;1.20;1.00;;;;;;;12.39;85.77;102521.59;5000558;28;20056;-77
2022/08/06 00:16:17;;;;;;;2.22;0.80;;;;;;;12.36;85.63;102528.75;5000201;28;20029;-77
2022/08/06 00:18:43;;;;;;;0.70;0.70;;;;;;;12.38;85.78;102527.84;5003289;28;20045;-77
2022/08/06 00:21:09;;;;;;;1.27;0.70;;;;;;;12.36;85.94;102518.13;5019488;28;20393;-77
2022/08/06 00:23:34;;;;;;;0.75;0.60;;;;;;;12.37;86.26;102534.94;5000566;28;20171;-77
2022/08/06 00:26:00;;;;;;;1.08;0.77;;;;;;;12.35;86.33;102526.13;5016643;28;20061;-77
2022/08/06 00:28:25;;;;;;;0.70;0.70;;;;;;;12.35;86.37;102529.66;5015139;28;20040;-77
2022/08/06 00:30:51;;;;;;;1.00;1.00;;;;;;;12.34;86.53;102541.22;5021020;28;20048;-78
2022/08/06 00:33:16;;;;;;;0.60;0.60;;;;;;;12.32;86.42;102543.00;5014735;28;20053;-78
2022/08/06 00:35:43;;;;;;;0.60;0.60;;;;;;;12.31;86.29;102535.97;5017980;28;20037;-78
2022/08/06 00:38:08;;;;;;;0.90;0.77;;;;;;;12.30;86.30;102536.88;5020883;28;20041;-78
2022/08/06 00:40:35;;;;;;;0.70;0.70;;;;;;;12.29;86.55;102537.78;5016587;28;20644;-78
2022/08/06 00:43:02;;;;;;;0.85;0.52;;;;;;;12.29;86.58;102543.09;5020084;28;20025;-78
2022/08/06 00:45:32;;;;;;;0.80;0.70;;;;;;;12.28;86.49;102541.38;5001082;28;20040;-78
2022/08/06 00:47:59;;;;;;;0.82;0.80;;;;;;;12.27;86.70;102536.97;5003222;28;20099;-78
2022/08/06 00:50:25;;;;;;;0.73;0.73;;;;;;;12.27;86.67;102533.44;5018183;28;20037;-78
2022/08/06 00:52:50;;;;;;;2.42;0.85;;;;;;;12.25;86.77;102536.13;5018309;28;20033;-78
2022/08/06 00:55:19;;;;;;;0.68;0.68;;;;;;;12.23;87.02;102537.94;5001567;28;20113;-78
2022/08/06 00:57:46;;;;;;;0.60;0.60;;;;;;;12.22;86.78;102547.69;5007782;28;20073;-78
2022/08/06 01:00:12;;;;;;;0.93;0.90;;;;;;;12.21;86.81;102545.09;5011871;28;20034;-78
2022/08/06 01:02:40;;;;;;;0.60;0.60;;;;;;;12.17;87.02;102546.94;5009074;28;20030;-78
2022/08/06 01:05:06;;;;;;;0.70;0.70;;;;;;;12.17;87.04;102548.72;4998162;28;20029;-78
2022/08/06 01:07:32;;;;;;;0.85;0.80;;;;;;;12.17;86.98;102552.25;4992669;28;20423;-78
2022/08/06 01:09:57;;;;;;;0.80;0.80;;;;;;;12.16;87.31;102552.28;5009987;28;20051;-78
2022/08/06 01:12:26;;;;;;;0.98;0.80;;;;;;;12.16;87.68;102557.59;5015679;28;20118;-78
2022/08/06 01:14:52;;;;;;;1.77;0.85;;;;;;;12.16;87.88;102563.75;5015015;28;20048;-78
2022/08/06 01:17:23;;;;;;;0.68;0.68;;;;;;;12.16;88.43;102562.91;5003895;28;20392;-78
2022/08/06 01:20:09;;;;;;;0.70;0.70;;;;;;;12.15;88.56;102564.69;5013112;28;20716;-78
2022/08/06 01:22:46;;;;;;;0.95;0.70;;;;;;;12.15;88.12;102555.84;5018985;28;20033;-78
2022/08/06 01:25:50;;;;;;;0.98;0.88;;;;;;;12.15;88.63;102561.16;5019095;28;20040;-78
2022/08/06 01:28:18;;;;;;;1.00;0.80;;;;;;;12.15;88.09;102562.03;5019378;28;20038;-78
2022/08/06 01:30:51;;;;;;;1.48;0.80;;;;;;;12.15;88.63;102566.47;5019354;28;20053;-78
2022/08/06 01:33:24;;;;;;;1.42;0.90;;;;;;;12.15;88.74;102570.00;5018102;28;20044;-78
2022/08/06 01:35:51;;;;;;;0.82;0.82;;;;;;;12.15;88.80;102572.63;5018638;28;20043;-78
2022/08/06 01:38:22;;;;;;;0.68;0.68;;;;;;;12.16;89.01;102573.53;5015846;28;20033;-78
2022/08/06 01:40:49;;;;;;;0.70;0.70;;;;;;;12.18;88.82;102580.56;5017606;28;20040;-78
2022/08/06 01:43:17;;;;;;;0.70;0.70;;;;;;;12.17;88.89;102575.28;5019152;28;20041;-78
2022/08/06 01:45:43;;;;;;;1.02;0.80;;;;;;;12.16;88.62;102570.88;5016242;28;20055;-78
2022/08/06 01:48:13;;;;;;;0.90;0.80;;;;;;;12.16;89.20;102578.84;5001954;28;20033;-78
2022/08/06 01:50:48;;;;;;;1.20;0.93;;;;;;;12.15;89.57;102574.44;5018923;28;20076;-78
2022/08/06 01:53:17;;;;;;;1.38;0.88;;;;;;;12.14;89.51;102586.84;5000168;28;20041;-78
2022/08/06 01:55:46;;;;;;;0.82;0.70;;;;;;;12.14;89.64;102585.97;5001558;28;20051;-78
2022/08/06 01:58:12;;;;;;;1.40;0.80;;;;;;;12.14;89.96;102593.94;5023343;28;20052;-78
2022/08/06 02:00:45;;;;;;;0.90;0.90;;;;;;;12.13;90.00;102594.81;4987048;28;20033;-78
2022/08/06 02:03:17;;;;;;;0.82;0.82;;;;;;;12.12;90.17;102588.66;5001728;28;20030;-78
2022/08/06 02:05:43;;;;;;;;;;;;;;;12.13;91.14;102597.47;5020002;28;20041;-78
2022/08/06 02:08:11;;;;;;;1.23;0.90;;;;;;;12.07;90.12;102588.78;5019354;28;19925;-78
2022/08/06 02:10:37;;;;;;;2.80;0.90;;;;;;;12.06;90.12;102595.00;4989110;28;20552;-78
2022/08/06 02:13:03;;;;;;;1.00;1.00;;;;;;;12.03;90.80;102592.41;5005506;28;20030;-79
2022/08/06 02:15:30;;;;;;;0.85;0.85;;;;;;;12.00;91.08;102588.91;5004810;28;20024;-78
2022/08/06 02:18:01;;;;;;;1.48;1.05;;;;;;;11.95;91.30;102592.53;5001566;28;20036;-78
2022/08/06 02:20:32;;;;;;;1.52;1.05;;;;;;;11.92;90.99;102595.28;5005707;28;20025;-78
2022/08/06 02:22:58;;;;;;;2.60;1.25;;;;;;;11.90;91.11;102601.53;5002878;28;20045;-78
2022/08/06 02:25:23;;;;;;;1.33;1.10;;;;;;;11.88;91.21;102603.34;5018324;28;20548;-78
2022/08/06 02:27:50;;;;;;;1.10;1.10;;;;;;;11.86;91.22;102605.16;5011805;28;20086;-78
2022/08/06 02:30:16;;;;;;;1.42;1.10;;;;;;;11.83;91.27;102606.13;5005338;28;20500;-79
2022/08/06 02:32:42;;;;;;;1.77;1.17;;;;;;;11.80;91.27;102607.06;5011725;28;20037;-78
2022/08/06 02:35:11;;;;;;;1.30;1.20;;;;;;;11.77;91.59;102604.44;5016256;28;20339;-79
2022/08/06 02:37:53;;;;;;;1.10;1.10;;;;;;;11.75;92.02;102600.97;5015701;28;20034;-78
2022/08/06 02:40:27;;;;;;;4.10;1.10;;;;;;;11.75;92.23;102605.38;5004772;28;20128;-78
2022/08/06 02:43:15;;;;;;;1.75;1.30;;;;;;;11.73;92.07;102599.25;5002378;28;20407;-78
2022/08/06 02:46:10;;;;;;;1.30;1.10;;;;;;;11.72;92.65;102606.31;4989718;28;20030;-79
2022/08/06 02:48:42;;;;;;;1.02;1.02;;;;;;;11.72;92.33;102606.31;5000782;28;20045;-78
2022/08/06 02:51:11;;;;;;;2.20;1.50;;;;;;;11.72;92.28;102606.31;5005485;28;20065;-79
2022/08/06 02:53:54;;;;;;;2.38;1.30;;;;;;;11.71;92.91;102603.72;5017205;28;20524;-78
2022/08/06 02:56:21;;;;;;;2.30;1.60;;;;;;;11.72;92.72;102610.78;5015443;28;20057;-78
2022/08/06 02:58:48;;;;;;;1.40;1.30;;;;;;;11.72;92.98;102611.63;5001371;28;20029;-78
2022/08/06 03:01:21;;;;;;;1.25;1.10;;;;;;;11.73;93.31;102608.09;5004396;28;20037;-79
2022/08/06 03:03:49;;;;;;;3.30;1.50;;;;;;;11.75;93.56;102602.75;5016100;28;20507;-78
2022/08/06 03:06:15;;;;;;;1.70;1.30;;;;;;;11.78;93.67;102611.50;5021327;28;20514;-78
2022/08/06 03:08:41;;;;;;;1.08;0.98;;;;;;;11.82;94.14;102609.66;5003951;28;20060;-78
2022/08/06 03:11:08;;;;;;;1.38;1.20;;;;;;;11.84;93.84;102609.63;5016602;28;20148;-78
2022/08/06 03:13:34;;;;;;;1.48;1.30;;;;;;;11.87;94.35;102620.19;5017267;28;20040;-78
2022/08/06 03:16:00;;;;;;;2.42;1.40;;;;;;;11.89;94.34;102618.38;5018835;28;20037;-78
2022/08/06 03:18:26;;;;;;;1.42;1.33;;;;;;;11.91;94.69;102622.72;5005755;28;20044;-78
2022/08/06 03:20:52;;;;;;;2.67;1.20;;;;;;;11.95;94.08;102626.19;5003287;28;20591;-78
2022/08/06 03:23:19;;;;;;;1.20;1.10;;;;;;;11.99;94.04;102625.19;5018839;28;20124;-78
2022/08/06 03:25:44;;;;;;;0.80;0.80;;;;;;;12.04;93.89;102627.81;5021542;28;20041;-78
2022/08/06 03:28:11;;;;;;;0.90;0.90;;;;;;;12.09;94.04;102623.22;5004705;28;20037;-78
2022/08/06 03:30:38;;;;;;;1.75;1.10;;;;;;;12.13;93.86;102626.69;5020817;28;20064;-78
2022/08/06 03:33:08;;;;;;;1.90;1.00;;;;;;;12.18;94.31;102628.34;5017214;28;20033;-78
2022/08/06 03:35:35;;;;;;;2.03;1.02;;;;;;;12.22;94.28;102630.00;5002358;28;20040;-78
2022/08/06 03:38:00;;;;;;;0.90;0.90;;;;;;;12.25;94.10;102637.03;5018386;28;20057;-79
2022/08/06 03:40:28;;;;;;;1.33;1.23;;;;;;;12.28;93.94;102633.41;5016391;28;20124;-78
2022/08/06 03:42:53;;;;;;;1.13;0.98;;;;;;;12.28;93.85;102633.41;5017134;28;20033;-79
2022/08/06 03:45:19;;;;;;;1.33;0.90;;;;;;;12.29;93.77;102637.81;5018151;28;20498;-79
2022/08/06 03:47:48;;;;;;;0.90;0.88;;;;;;;12.27;93.82;102626.38;5018599;28;20038;-78
2022/08/06 03:50:22;;;;;;;1.77;1.00;;;;;;;12.27;93.83;102629.03;5020690;28;20033;-78
2022/08/06 03:52:54;;;;;;;1.33;1.05;;;;;;;12.25;93.53;102631.72;5003652;28;20034;-78
2022/08/06 03:55:22;;;;;;;;;;;;;;;12.24;94.47;102635.28;5026501;28;20106;-78
2022/08/06 03:57:50;;;;;;;0.90;0.90;;;;;;;12.24;93.68;102634.44;5011908;28;19929;-79
2022/08/06 04:00:22;;;;;;;1.10;1.00;;;;;;;12.24;93.56;102637.06;5040381;28;20403;-79
2022/08/06 04:02:52;;;;;;;1.20;0.80;;;;;;;12.24;93.67;102635.28;5019609;28;20032;-78
2022/08/06 04:05:20;;;;;;;1.70;1.00;;;;;;;12.24;93.55;102634.44;5040342;28;21055;-78
2022/08/06 04:07:47;;;;;;;1.23;1.00;;;;;;;12.22;93.69;102647.72;5038039;28;20024;-78
2022/08/06 04:10:14;;;;;;;0.93;0.93;;;;;;;12.25;94.33;102646.78;5035704;28;20025;-78
2022/08/06 04:12:42;;;;;;;1.25;0.88;;;;;;;12.24;95.42;102647.69;5033597;28;20441;-78
2022/08/06 04:15:09;;;;;;;1.10;0.88;;;;;;;12.21;94.91;102641.53;5039408;28;20040;-78
2022/08/06 04:17:37;;;;;;;1.85;1.10;;;;;;;12.20;95.06;102650.41;5023192;28;20040;-79
2022/08/06 04:20:03;;;;;;;1.02;0.93;;;;;;;12.17;95.21;102641.66;5003152;28;20036;-78
2022/08/06 04:22:29;;;;;;;1.35;1.20;;;;;;;12.18;95.34;102654.00;5020047;28;20037;-78
2022/08/06 04:24:55;;;;;;;1.00;0.90;;;;;;;12.16;95.39;102654.03;5038221;28;20530;-78
2022/08/06 04:27:21;;;;;;;1.15;1.05;;;;;;;12.15;95.45;102644.31;5037054;28;20511;-78
2022/08/06 04:29:47;;;;;;;1.10;1.00;;;;;;;12.16;95.71;102655.84;5019513;28;20483;-78
2022/08/06 04:32:14;;;;;;;1.17;1.08;;;;;;;12.15;95.91;102656.75;5039975;28;20124;-78
2022/08/06 04:34:40;;;;;;;1.10;1.00;;;;;;;12.13;95.85;102656.78;5020282;28;20040;-78
2022/08/06 04:37:06;;;;;;;1.20;1.10;;;;;;;12.13;96.25;102655.88;5033744;28;20064;-79
2022/08/06 04:39:32;;;;;;;1.23;1.13;;;;;;;12.12;96.61;102656.81;5037011;28;20177;-78
2022/08/06 04:41:58;;;;;;;2.00;1.30;;;;;;;12.11;96.72;102665.69;5034440;28;20032;-78
2022/08/06 04:44:23;;;;;;;1.25;1.10;;;;;;;12.11;97.18;102666.56;5037130;28;20037;-78
2022/08/06 04:46:49;;;;;;;1.00;1.00;;;;;;;12.11;97.15;102671.88;5035738;28;20123;-78
2022/08/06 04:49:16;;;;;;;1.02;0.93;;;;;;;12.10;97.34;102670.13;5023239;28;20118;-78
2022/08/06 04:51:45;;;;;;;1.20;1.00;;;;;;;12.11;98.00;102671.88;5037596;28;20179;-78
2022/08/06 04:54:11;;;;;;;1.17;1.08;;;;;;;12.12;97.62;102675.38;5036726;28;20048;-78
2022/08/06 04:56:37;;;;;;;1.58;1.00;;;;;;;12.14;97.87;102676.25;5017823;28;20045;-78
2022/08/06 04:59:03;;;;;;;1.27;0.90;;;;;;;12.16;98.36;102674.41;5017383;28;20041;-78
2022/08/06 05:01:29;;;;;;;2.15;1.20;;;;;;;12.19;98.47;102674.34;4998651;28;20393;-78
2022/08/06 05:03:55;;;;;;;1.10;1.00;;;;;;;12.25;98.47;102679.50;4999078;28;20025;-78
2022/08/06 05:06:35;;;;;;;1.27;0.90;;;;;;;12.32;98.88;102697.03;5017243;28;20044;-78
2022/08/06 05:09:05;;;;;;;1.48;0.80;;;;;;;12.41;99.08;102700.41;5014911;28;20065;-78
2022/08/06 05:11:34;;;;;;;0.90;0.90;;;;;;;12.47;98.87;102703.78;4999055;28;20047;-78
2022/08/06 05:14:08;;;;;;;0.80;0.80;;;;;;;12.55;99.65;102706.28;5002593;28;20034;-78
2022/08/06 05:16:36;;;;;;;0.88;0.88;;;;;;;12.61;99.44;102708.78;4998607;28;20134;-78
2022/08/06 05:19:05;;;;;;;0.80;0.80;;;;;;;12.65;99.40;102712.25;4981496;28;20075;-78
2022/08/06 05:21:35;;;;;;;1.40;0.90;;;;;;;12.70;98.71;102712.97;5000713;28;20040;-78
2022/08/06 05:24:02;;;;;;;1.23;0.98;;;;;;;12.75;98.95;102718.19;4984823;28;20029;-78
2022/08/06 05:26:27;;;;;;;2.17;1.08;;;;;;;12.76;98.84;102706.66;5014336;28;20037;-78
2022/08/06 05:28:55;;;;;;;1.95;1.10;;;;;;;12.80;98.73;102715.41;5003281;28;20048;-78
2022/08/06 05:31:35;;;;;;;0.90;0.90;;;;;;;12.88;99.62;102724.06;4998604;28;20715;-78
2022/08/06 05:34:04;;;;;;;1.17;0.75;;;;;;;12.95;99.17;102722.09;5016703;28;20037;-78
2022/08/06 05:36:30;;;;;;;0.68;0.68;;;;;;;13.04;99.21;102716.56;5017483;28;20748;-78
2022/08/06 05:38:55;;;;;;;1.25;1.15;;;;;;;13.12;98.18;102722.56;4998461;28;20456;-78
2022/08/06 05:41:21;;;;;;;0.85;0.68;;;;;;;13.21;98.35;102718.78;5017487;28;20044;-78
2022/08/06 05:43:46;;;;;;;1.27;0.80;;;;;;;13.32;98.03;102721.16;5017200;28;20400;-78
2022/08/06 05:46:21;;;;;;;1.63;1.00;;;;;;;13.42;97.31;102719.97;4981854;28;20684;-78
2022/08/06 05:48:53;;;;;;;0.73;0.73;;;;;;;13.52;96.60;102717.97;4978741;28;20288;-79
2022/08/06 05:51:33;;;;;;;0.68;0.68;;;;;;;13.58;96.60;102717.78;4998094;28;20495;-78
2022/08/06 05:54:04;;;;;;;2.78;0.80;;;;;;;13.67;96.07;102721.97;5012954;28;20064;-79
2022/08/06 05:56:41;;;;;;;1.15;0.70;;;;;;;13.88;96.16;102724.94;5018604;28;20046;-79
2022/08/06 05:59:12;;;;;;;0.60;0.60;;;;;;;14.20;96.01;102731.09;5018397;28;20036;-78
2022/08/06 06:01:38;;;;;;;1.05;0.80;;;;;;;14.49;95.23;102729.28;5005967;28;20029;-79
2022/08/06 06:04:04;;;;;;;1.48;0.70;;;;;;;14.74;94.00;102735.66;4985718;28;20040;-79
2022/08/06 06:06:30;;;;;;;1.00;0.70;;;;;;;14.95;92.72;102747.41;5022010;28;20044;-79
2022/08/06 06:08:55;;;;;;;0.90;0.70;;;;;;;15.14;91.82;102741.44;5006001;28;20036;-78
2022/08/06 06:11:22;;;;;;;1.45;0.77;;;;;;;15.36;91.03;102746.03;5019492;28;20449;-78
2022/08/06 06:13:48;;;;;;;1.17;1.10;;;;;;;15.54;90.66;102741.81;5017052;28;20033;-78
2022/08/06 06:16:21;;;;;;;0.90;0.82;;;;;;;15.77;90.14;102732.97;5019926;28;20042;-78
2022/08/06 06:18:55;;;;;;;1.88;0.90;;;;;;;15.97;89.27;102745.56;5019553;28;20647;-78
2022/08/06 06:21:43;;;;;;;0.77;0.75;;;;;;;16.14;88.66;102736.91;5019852;28;20045;-78
2022/08/06 06:24:29;;;;;;;1.00;0.70;;;;;;;16.36;87.81;102741.44;4985849;28;20101;-78
2022/08/06 06:27:05;;;;;;;1.20;0.90;;;;;;;16.52;87.03;102733.63;5022421;28;20083;-78
2022/08/06 06:29:41;;;;;;;0.60;0.60;;;;;;;16.73;86.85;102735.50;5018704;28;20323;-78
2022/08/06 06:32:19;;;;;;;1.02;0.63;;;;;;;16.90;86.15;102745.50;4979251;28;20044;-78
2022/08/06 06:34:59;;;;;;;1.20;0.70;;;;;;;17.10;86.11;102741.97;5018289;28;20033;-78
2022/08/06 06:37:46;;;;;;;1.45;0.98;;;;;;;17.30;85.34;102742.94;5019144;28;20466;-78
2022/08/06 06:40:34;;;;;;;0.95;0.70;;;;;;;17.46;84.09;102752.03;5021764;28;20377;-78
2022/08/06 06:43:11;;;;;;;0.80;0.75;;;;;;;17.67;84.73;102752.00;5019869;28;20024;-78
2022/08/06 06:46:14;;;;;;;2.50;1.00;;;;;;;17.84;82.58;102756.59;4996805;28;20387;-77
2022/08/06 06:49:00;;;;;;;1.08;0.90;;;;;;;18.01;83.43;102745.09;5015773;28;20159;-77
2022/08/06 06:51:31;;;;;;;0.60;0.60;;;;;;;18.22;83.51;102752.19;5001134;28;20033;-77
2022/08/06 06:53:57;;;;;;;1.02;0.70;;;;;;;18.46;83.41;102760.88;5005080;28;20045;-77
2022/08/06 06:56:36;;;;;;;0.88;0.75;;;;;;;18.62;82.48;102760.13;4994921;28;20042;-78
2022/08/06 06:59:07;;;;;;;1.17;0.90;;;;;;;18.70;82.62;102757.94;4984882;28;20470;-77
2022/08/06 07:01:33;;;;;;;1.33;0.98;;;;;;;18.84;82.61;102755.41;4997141;28;20050;-78
2022/08/06 07:04:02;;;;;;;1.73;0.80;;;;;;;19.00;82.00;102757.31;5015249;28;20044;-77
2022/08/06 07:06:28;;;;;;;1.48;0.90;;;;;;;19.19;81.87;102761.78;5010307;28;20041;-77
2022/08/06 07:08:54;;;;;;;1.05;0.95;;;;;;;19.35;81.41;102768.06;5009808;28;20038;-78
2022/08/06 07:11:22;;;;;;;1.33;0.90;;;;;;;19.43;80.55;102761.44;5012720;28;20029;-78
2022/08/06 07:13:49;;;;;;;2.15;1.00;;;;;;;19.46;80.21;102772.00;5013387;28;20171;-83
2022/08/06 07:16:22;;;;;;;2.65;0.93;;;;;;;19.52;78.45;102769.84;5012992;28;20037;-82
2022/08/06 07:18:49;;;;;;;3.05;1.27;;;;;;;19.66;79.01;102774.50;4983842;28;20098;-78
2022/08/06 07:21:16;;;;;;;2.30;0.90;;;;;;;19.53;78.17;102773.41;5012373;28;20037;-77
2022/08/06 07:23:48;;;;;;;1.67;1.17;;;;;;;19.62;78.77;102780.97;4999370;28;20044;-77
2022/08/06 07:26:17;;;;;;;1.20;0.80;;;;;;;19.61;77.40;102781.09;5015803;28;20046;-77
2022/08/06 07:28:43;;;;;;;2.22;1.15;;;;;;;19.37;76.66;102784.09;5016357;28;20036;-77
2022/08/06 07:31:09;;;;;;;1.27;0.93;;;;;;;19.33;77.87;102785.22;5017083;28;20042;-77
2022/08/06 07:33:38;;;;;;;2.38;1.00;;;;;;;19.43;77.18;102789.16;5017117;28;20107;-77
2022/08/06 07:36:05;;;;;;;1.15;1.00;;;;;;;19.37;75.29;102784.97;5016711;28;20157;-77
2022/08/06 07:38:33;;;;;;;1.92;1.02;;;;;;;19.35;76.04;102794.06;4998358;28;20045;-77
2022/08/06 07:41:01;;;;;;;1.30;1.00;;;;;;;19.56;75.28;102788.50;5000445;28;20025;-78
2022/08/06 07:43:31;;;;;;;0.82;0.73;;;;;;;19.70;74.53;102790.44;5012352;28;20233;-78
2022/08/06 07:46:00;;;;;;;1.30;1.00;;;;;;;19.71;73.03;102786.84;5000772;28;20182;-76
2022/08/06 07:48:32;;;;;;;0.90;0.88;;;;;;;19.68;72.07;102796.78;5016690;28;20052;-77
2022/08/06 07:50:58;;;;;;;0.82;0.82;;;;;;;19.80;72.65;102791.69;5016914;28;20450;-77
2022/08/06 07:53:23;;;;;;;1.73;0.95;;;;;;;19.95;72.51;102801.63;5012863;28;20033;-77
2022/08/06 07:55:49;;;;;;;1.65;0.90;;;;;;;20.21;72.20;102796.66;5016882;28;20103;-77
2022/08/06 07:58:15;;;;;;;1.73;1.00;;;;;;;20.32;70.99;102800.56;5004332;28;20052;-77
2022/08/06 08:00:42;;;;;;;2.55;1.17;;;;;;;20.39;70.25;102799.25;5020506;28;20128;-77
2022/08/06 08:08:38;;;;;;;1.20;0.70;;;;;;;20.35;70.19;102808.44;5020059;28;20048;-77
2022/08/06 08:11:05;;;;;;;1.45;0.90;;;;;;;20.52;68.85;102810.19;5003241;28;20030;-76
2022/08/06 08:13:31;;;;;;;1.33;1.23;;;;;;;20.65;69.15;102804.97;5013849;28;20091;-77
2022/08/06 08:15:57;;;;;;;1.98;1.35;;;;;;;20.72;68.38;102811.75;4999178;28;20037;-77
2022/08/06 08:18:29;;;;;;;1.05;0.75;;;;;;;20.69;66.64;102817.28;5016607;28;20052;-77
2022/08/06 08:20:56;;;;;;;2.22;1.00;;;;;;;20.68;67.77;102815.56;5014068;28;20533;-77
2022/08/06 08:23:23;;;;;;;1.20;1.10;;;;;;;20.49;66.89;102818.44;5017984;28;20480;-77
2022/08/06 08:25:49;;;;;;;1.25;1.05;;;;;;;20.41;67.73;102813.47;5018816;28;20041;-77
2022/08/06 08:28:14;;;;;;;0.98;0.90;;;;;;;20.57;68.04;102807.22;5018207;28;20032;-79
2022/08/06 08:30:46;;;;;;;1.00;1.00;;;;;;;20.81;64.81;102809.47;5003737;28;20475;-77
2022/08/06 08:33:11;;;;;;;1.55;0.75;;;;;;;21.00;65.94;102814.66;5016442;28;20602;-77
2022/08/06 08:35:37;;;;;;;0.80;0.80;;;;;;;21.11;64.44;102822.97;5017770;28;21477;-77
2022/08/06 08:38:03;;;;;;;2.55;0.88;;;;;;;21.20;63.64;102823.38;4999297;28;20048;-77
2022/08/06 08:40:29;;;;;;;1.25;0.80;;;;;;;21.13;63.39;102823.75;5017818;28;20040;-77
2022/08/06 08:42:57;;;;;;;1.50;1.00;;;;;;;21.16;63.11;102828.97;5018259;28;20035;-78
2022/08/06 08:45:24;;;;;;;0.73;0.73;;;;;;;21.20;63.54;102820.69;5003223;28;20560;-78
2022/08/06 08:47:51;;;;;;;1.23;0.80;;;;;;;21.06;62.17;102827.75;4999556;28;20058;-78
2022/08/06 08:50:23;;;;;;;1.23;1.05;;;;;;;20.86;61.68;102831.63;5013888;28;20029;-79
2022/08/06 08:52:51;;;;;;;0.70;0.70;;;;;;;20.72;61.63;102833.28;5017927;28;20034;-77
2022/08/06 08:55:18;;;;;;;1.02;0.95;;;;;;;20.54;62.67;102826.25;4998882;28;20038;-77
2022/08/06 08:57:44;;;;;;;1.50;1.00;;;;;;;20.36;63.28;102826.31;5014810;28;20092;-78
2022/08/06 09:00:10;;;;;;;1.38;0.90;;;;;;;20.19;63.53;102830.81;5014985;28;20147;-78
2022/08/06 09:02:41;;;;;;;1.27;0.88;;;;;;;20.04;64.15;102827.16;5003133;28;20140;-79
2022/08/06 09:05:07;;;;;;;2.83;1.00;;;;;;;20.06;64.32;102824.38;5003223;28;20033;-77
2022/08/06 09:07:33;;;;;;;2.17;0.90;;;;;;;20.00;63.81;102830.94;5017531;28;20668;-78
2022/08/06 09:09:59;;;;;;;1.98;1.05;;;;;;;19.77;63.90;102832.19;4998659;28;20045;-78
2022/08/06 09:12:25;;;;;;;1.60;1.02;;;;;;;19.56;64.25;102837.75;5017815;28;20547;-78
2022/08/06 09:14:51;;;;;;;1.20;0.90;;;;;;;19.46;64.74;102837.34;5017697;28;20520;-77
2022/08/06 09:17:17;;;;;;;0.95;0.80;;;;;;;19.64;65.21;102837.31;4994240;28;21048;-77
2022/08/06 09:19:44;;;;;;;0.98;0.88;;;;;;;19.94;64.67;102831.28;5012104;28;20487;-77
2022/08/06 09:22:10;;;;;;;1.15;1.00;;;;;;;20.20;64.22;102837.94;5017078;28;20059;-77
2022/08/06 09:24:39;;;;;;;1.20;1.10;;;;;;;20.32;60.85;102835.53;5015602;28;20039;-76
2022/08/06 09:27:12;;;;;;;0.93;0.93;;;;;;;20.26;60.64;102831.34;5017876;28;20072;-78
2022/08/06 09:29:49;;;;;;;1.15;0.98;;;;;;;20.07;57.44;102826.13;5019868;28;20036;-78
2022/08/06 09:32:37;;;;;;;1.08;0.98;;;;;;;19.95;56.67;102839.25;5017332;28;20037;-78
2022/08/06 09:35:18;;;;;;;1.02;0.93;;;;;;;19.80;59.70;102832.00;4995198;28;20435;-78
2022/08/06 09:37:44;;;;;;;0.85;0.85;;;;;;;19.61;60.19;102845.56;4987159;28;20033;-76
2022/08/06 09:40:28;;;;;;;1.45;1.25;;;;;;;19.47;59.63;102844.47;5002150;28;20033;-77
2022/08/06 09:42:54;;;;;;;1.35;1.08;;;;;;;19.71;62.10;102840.56;5021485;28;20048;-77
2022/08/06 09:45:21;;;;;;;1.63;1.10;;;;;;;20.06;61.69;102835.13;5021063;28;20040;-78
2022/08/06 09:47:49;;;;;;;1.42;0.82;;;;;;;20.41;61.59;102835.00;5001705;28;20029;-79
2022/08/06 09:50:14;;;;;;;1.38;1.20;;;;;;;20.73;61.58;102842.19;5021376;28;20039;-78
2022/08/06 09:52:40;;;;;;;1.80;1.00;;;;;;;20.73;61.05;102851.16;5020850;28;20026;-79
2022/08/06 09:55:06;;;;;;;1.35;0.98;;;;;;;20.42;59.01;102852.88;5019076;28;20630;-77
2022/08/06 09:57:45;;;;;;;1.42;1.20;;;;;;;20.29;59.36;102847.31;5006838;28;20044;-78
2022/08/06 10:00:23;;;;;;;2.60;1.30;;;;;;;20.17;60.11;102850.69;4993617;28;20395;-78
2022/08/06 10:03:00;;;;;;;1.45;1.00;;;;;;;19.92;60.38;102860.03;5020074;28;20034;-77
2022/08/06 10:05:28;;;;;;;1.08;1.00;;;;;;;19.67;61.40;102853.28;5020250;28;20735;-77
2022/08/06 10:08:17;;;;;;;3.63;2.00;;;;;;;19.52;60.62;102858.50;5020684;28;20101;-78
2022/08/06 10:10:48;;;;;;;3.00;1.20;;;;;;;19.43;61.66;102863.50;5001563;28;20040;-80
2022/08/06 10:13:15;;;;;;;1.63;1.05;;;;;;;19.32;61.98;102867.59;5020958;28;20045;-79
2022/08/06 10:15:44;;;;;;;9.45;7.28;;;;;;;19.19;61.72;102871.84;5021050;28;20447;-79
2022/08/06 10:18:11;;;;;;;8.45;5.32;;;;;;;19.11;61.61;102870.41;5003640;28;20411;-80
2022/08/06 10:20:36;;;;;;;3.85;2.58;;;;;;;19.05;61.62;102872.50;5020602;28;20022;-79
2022/08/06 10:23:02;;;;;;;2.40;1.30;;;;;;;18.96;61.56;102868.47;5019858;28;21761;-79
2022/08/06 10:25:29;;;;;;;1.20;1.00;;;;;;;18.92;61.74;102878.47;5021300;28;20778;-78
2022/08/06 10:27:55;;;;;;;1.85;1.33;;;;;;;18.89;61.81;102881.28;5003122;28;20082;-79
2022/08/06 10:30:21;;;;;;;1.73;1.20;;;;;;;19.00;61.85;102870.91;5000827;28;20641;-79
2022/08/06 10:32:50;;;;;;;1.52;1.10;;;;;;;19.15;61.08;102865.75;5019355;28;20087;-78
2022/08/06 10:35:17;;;;;;;1.50;1.20;;;;;;;19.25;61.20;102864.34;5021029;28;20040;-78
2022/08/06 10:37:44;;;;;;;1.75;0.95;;;;;;;19.40;61.46;102861.84;5003922;28;20523;-77
2022/08/06 10:40:12;;;;;;;1.50;1.00;;;;;;;19.58;61.17;102862.69;5002370;28;20056;-79
2022/08/06 10:42:41;;;;;;;1.80;1.00;;;;;;;19.73;60.19;102862.84;4982491;28;20098;-78
2022/08/06 10:45:11;;;;;;;1.63;1.13;;;;;;;19.84;58.69;102856.88;5019913;28;20037;-78
2022/08/06 10:47:39;;;;;;;0.95;0.90;;;;;;;19.91;59.23;102867.25;5019079;28;20117;-79
2022/08/06 10:50:05;;;;;;;1.50;0.85;;;;;;;19.91;58.91;102863.69;4986442;28;20037;-78
2022/08/06 10:52:31;;;;;;;2.42;1.20;;;;;;;20.03;59.32;102862.16;5020506;28;20087;-77
2022/08/06 10:54:59;;;;;;;0.95;0.82;;;;;;;20.11;59.19;102864.44;5017675;28;20069;-78
2022/08/06 10:57:26;;;;;;;1.00;0.85;;;;;;;20.16;58.69;102868.63;5020199;28;20046;-77
2022/08/06 10:59:52;;;;;;;1.63;0.90;;;;;;;20.25;58.74;102855.66;5030077;28;20169;-78
2022/08/06 11:02:42;;;;;;;2.45;0.90;;;;;;;20.43;58.31;102853.75;5038746;28;20111;-78
2022/08/06 11:05:20;;;;;;;1.00;0.90;;;;;;;20.56;57.96;102857.50;5035334;28;20053;-78
2022/08/06 11:07:56;;;;;;;2.05;0.93;;;;;;;20.44;57.09;102848.25;5033122;28;20484;-78
2022/08/06 11:10:45;;;;;;;1.10;1.00;;;;;;;20.29;57.31;102852.69;5036910;28;20563;-79
2022/08/06 11:13:21;;;;;;;3.30;1.10;;;;;;;20.17;57.88;102848.88;5040675;28;20120;-78
2022/08/06 11:15:47;;;;;;;1.80;0.90;;;;;;;20.16;58.98;102857.88;5020846;28;20025;-78
2022/08/06 11:18:13;;;;;;;0.68;0.68;;;;;;;20.27;58.84;102853.72;5039084;28;20044;-79
2022/08/06 11:20:44;;;;;;;1.02;0.90;;;;;;;20.29;58.35;102851.81;5021789;28;20051;-78
2022/08/06 11:23:12;;;;;;;1.10;1.00;;;;;;;20.33;57.71;102850.72;5027474;28;20035;-79
2022/08/06 11:25:58;;;;;;;0.77;0.77;;;;;;;20.37;56.99;102846.88;5025580;28;20036;-79
2022/08/06 11:28:32;;;;;;;1.63;1.05;;;;;;;20.55;55.73;102844.13;5034421;28;20407;-78
2022/08/06 11:31:04;;;;;;;1.20;1.00;;;;;;;20.67;56.18;102843.41;5036934;28;20229;-79
2022/08/06 11:33:33;;;;;;;1.10;1.00;;;;;;;20.78;54.57;102842.81;5040920;28;20040;-78
2022/08/06 11:35:59;;;;;;;2.10;0.93;;;;;;;20.76;56.79;102850.09;5038758;28;20044;-79
2022/08/06 11:38:44;;;;;;;1.40;1.10;;;;;;;20.59;55.74;102845.69;5020760;28;20037;-79
2022/08/06 11:41:12;;;;;;;2.03;1.50;;;;;;;20.34;56.41;102845.25;5032799;28;20379;-78
2022/08/06 11:43:48;;;;;;;5.18;2.15;;;;;;;20.20;57.25;102853.19;5040197;28;21039;-78